Time;durP1;ratioP1;P1;durP2;ratioP2;P2;SDS_P1;SDS_P2;PMS_P1;PMS_P2;Temp;Humidity;BMP_temperature;BMP_pressure;BME280_temperature;BME280_humidity;BME280_pressure;Samples;Min_cycle;Max_cycle;Signal;HPM_P1;HPM_P2
2022/08/12 00:44:59;;;;;;;8.50;3.00;;;20.60;99.50;;;;;;4989375;28;20084;-76
2022/08/12 00:47:24;;;;;;;4.68;3.30;;;20.60;99.60;;;;;;4963706;28;20123;-76
2022/08/12 00:49:51;;;;;;;4.70;3.20;;;20.60;99.70;;;;;;4970700;28;20043;-76
2022/08/12 00:52:18;;;;;;;9.48;3.00;;;20.60;99.80;;;;;;4970837;28;20075;-76
2022/08/12 00:54:48;;;;;;;6.63;2.88;;;20.50;99.90;;;;;;4970112;28;20039;-76
2022/08/12 00:57:18;;;;;;;4.35;3.05;;;20.60;99.90;;;;;;5045889;28;20043;-76
2022/08/12 00:59:48;;;;;;;3.85;2.90;;;20.50;99.90;;;;;;4997852;28;20046;-76
2022/08/12 01:02:22;;;;;;;6.75;3.65;;;20.50;99.90;;;;;;4977625;28;20212;-76
2022/08/12 01:13:15;;;;;;;6.45;3.30;;;20.40;99.90;;;;;;5006123;28;20094;-76
2022/08/12 01:15:42;;;;;;;7.57;3.33;;;20.40;99.90;;;;;;4968241;28;20054;-76
2022/08/12 01:18:09;;;;;;;4.97;3.20;;;20.30;99.90;;;;;;4960273;28;20062;-76
2022/08/12 01:20:58;;;;;;;4.30;3.05;;;20.30;99.90;;;;;;4969542;28;20101;-76
2022/08/12 01:23:42;;;;;;;7.18;3.50;;;20.30;99.90;;;;;;4966029;28;20051;-76
2022/08/12 01:26:12;;;;;;;6.22;3.70;;;20.30;99.90;;;;;;4961514;28;20039;-76
2022/08/12 01:28:40;;;;;;;7.50;3.72;;;20.20;99.90;;;;;;4972606;28;20055;-76
2022/08/12 01:31:07;;;;;;;4.13;3.25;;;20.20;99.90;;;;;;4969377;28;20085;-76
2022/08/12 01:33:39;;;;;;;6.30;3.30;;;20.20;99.90;;;;;;4953124;28;20096;-76
2022/08/12 01:36:08;;;;;;;6.28;3.28;;;20.20;99.90;;;;;;4987981;28;20043;-76
2022/08/12 01:38:35;;;;;;;6.13;3.10;;;20.20;99.90;;;;;;4969566;28;20039;-76
2022/08/12 01:41:03;;;;;;;5.22;3.60;;;20.20;99.90;;;;;;4969418;28;20090;-76
2022/08/12 01:43:30;;;;;;;5.15;3.53;;;20.10;99.90;;;;;;4967478;28;20424;-76
2022/08/12 01:46:05;;;;;;;6.88;3.72;;;20.20;99.90;;;;;;4963555;28;20046;-76
2022/08/12 01:48:49;;;;;;;7.68;3.95;;;20.10;99.90;;;;;;4972743;28;20523;-76
2022/08/12 01:51:39;;;;;;;6.30;3.53;;;20.10;99.90;;;;;;4955517;28;20104;-76
2022/08/12 01:54:09;;;;;;;5.63;3.47;;;20.00;99.90;;;;;;4964658;28;20316;-76
2022/08/12 01:56:47;;;;;;;4.93;3.67;;;20.00;99.90;;;;;;5059662;28;20039;-76
2022/08/12 01:59:45;;;;;;;6.13;4.10;;;20.00;99.90;;;;;;4946990;28;20035;-75
2022/08/12 02:02:28;;;;;;;7.03;3.47;;;20.00;99.90;;;;;;4968869;28;20130;-75
2022/08/12 02:11:24;;;;;;;5.30;3.28;;;19.90;99.90;;;;;;4964390;28;20050;-75
2022/08/12 02:14:01;;;;;;;6.72;3.45;;;19.90;99.90;;;;;;4969763;28;20038;-76
2022/08/12 02:16:45;;;;;;;7.03;3.50;;;19.90;99.90;;;;;;4967096;28;20035;-76
2022/08/12 02:19:55;;;;;;;4.05;3.40;;;19.80;99.90;;;;;;4977040;28;20049;-76
2022/08/12 02:22:30;;;;;;;5.60;3.20;;;19.80;99.90;;;;;;4981432;28;20054;-76
2022/08/12 02:25:10;;;;;;;6.72;3.70;;;19.80;99.90;;;;;;4968568;28;20046;-76
2022/08/12 02:27:44;;;;;;;5.15;3.72;;;19.70;99.90;;;;;;4968185;28;20528;-76
2022/08/12 02:30:13;;;;;;;5.40;3.53;;;19.70;99.90;;;;;;4968546;28;20162;-76
2022/08/12 02:32:41;;;;;;;6.40;3.45;;;19.70;99.90;;;;;;4978036;28;20402;-75
2022/08/12 02:35:18;;;;;;;5.25;3.78;;;19.70;99.90;;;;;;5059322;28;20099;-75
2022/08/12 02:37:45;;;;;;;5.78;3.22;;;19.70;99.90;;;;;;4967063;28;20058;-75
2022/08/12 02:40:13;;;;;;;6.88;3.65;;;19.60;99.90;;;;;;4964166;28;20074;-75
2022/08/12 02:42:53;;;;;;;6.57;3.92;;;19.70;99.90;;;;;;4963500;28;20087;-74
2022/08/12 02:45:32;;;;;;;6.68;3.95;;;19.60;99.90;;;;;;4968007;28;20043;-77
2022/08/12 02:48:05;;;;;;;6.25;3.88;;;19.60;99.90;;;;;;4978215;28;20042;-75
2022/08/12 02:50:35;;;;;;;6.68;4.13;;;19.50;99.90;;;;;;4977182;28;20043;-75
2022/08/12 02:53:03;;;;;;;7.03;3.88;;;19.50;99.90;;;;;;4968221;28;20051;-76
2022/08/12 02:55:33;;;;;;;7.35;4.18;;;19.50;99.90;;;;;;4967976;28;20061;-75
2022/08/12 02:57:59;;;;;;;8.15;4.90;;;19.50;99.90;;;;;;4968020;28;20051;-75
2022/08/12 03:00:27;;;;;;;5.07;3.88;;;19.50;99.90;;;;;;4968245;28;20050;-75
2022/08/12 03:02:55;;;;;;;5.63;4.20;;;19.40;99.90;;;;;;4968146;28;20407;-75
2022/08/12 03:05:23;;;;;;;7.03;4.05;;;19.30;99.90;;;;;;4968029;28;20043;-75
2022/08/12 03:07:52;;;;;;;5.32;3.85;;;19.40;99.90;;;;;;4968068;28;20050;-75
2022/08/12 03:10:23;;;;;;;9.85;4.60;;;19.40;99.90;;;;;;4969782;28;20035;-75
2022/08/12 03:12:52;;;;;;;7.82;4.22;;;19.30;99.90;;;;;;4961979;28;20070;-75
2022/08/12 03:15:21;;;;;;;8.20;4.35;;;19.30;99.90;;;;;;4968214;28;20038;-75
2022/08/12 03:18:12;;;;;;;7.35;4.35;;;19.20;99.90;;;;;;4969086;28;20445;-76
2022/08/12 03:20:39;;;;;;;6.93;4.30;;;19.30;99.90;;;;;;4971602;28;20445;-75
2022/08/12 03:23:12;;;;;;;5.90;4.40;;;19.20;99.90;;;;;;4971278;28;20045;-76
2022/08/12 03:25:40;;;;;;;6.63;4.40;;;19.20;99.90;;;;;;4971405;28;20133;-75
2022/08/12 03:28:10;;;;;;;8.45;4.47;;;19.20;99.90;;;;;;4971551;28;20399;-76
2022/08/12 03:30:36;;;;;;;5.85;4.20;;;19.20;99.90;;;;;;4969231;28;20506;-76
2022/08/12 03:33:03;;;;;;;7.38;4.28;;;19.10;99.90;;;;;;4971190;28;20180;-76
2022/08/12 03:35:32;;;;;;;5.72;4.30;;;19.10;99.90;;;;;;4972240;28;20043;-76
2022/08/12 03:38:14;;;;;;;10.00;4.45;;;19.10;99.90;;;;;;4971214;28;20506;-76
2022/08/12 04:00:46;;;;;;;9.07;5.18;;;18.90;99.90;;;;;;4967786;28;20513;-76
2022/08/12 04:05:56;;;;;;;7.90;5.10;;;18.90;99.90;;;;;;4970833;28;20099;-76
2022/08/12 04:08:25;;;;;;;7.15;5.05;;;18.90;99.90;;;;;;4970607;28;20491;-76
2022/08/12 04:13:39;;;;;;;6.75;4.95;;;18.80;99.90;;;;;;4961638;28;20050;-76
2022/08/12 04:16:09;;;;;;;7.10;4.90;;;18.80;99.90;;;;;;4970548;28;20055;-76
2022/08/12 04:18:37;;;;;;;7.22;5.32;;;18.80;99.90;;;;;;4964511;28;20122;-76
2022/08/12 04:21:10;;;;;;;6.65;4.65;;;18.80;99.90;;;;;;4970525;28;20046;-76
2022/08/12 04:23:37;;;;;;;9.75;4.85;;;18.80;99.90;;;;;;4970503;28;20047;-76
2022/08/12 04:26:06;;;;;;;10.95;4.82;;;18.80;99.90;;;;;;4963256;28;20062;-76
2022/08/12 04:28:32;;;;;;;7.70;5.38;;;18.80;99.90;;;;;;4966488;28;20134;-76
2022/08/12 04:30:58;;;;;;;6.82;4.65;;;18.70;99.90;;;;;;4970370;28;20054;-76
2022/08/12 04:33:25;;;;;;;6.45;4.82;;;18.70;99.90;;;;;;4969549;28;20043;-76
2022/08/12 04:35:52;;;;;;;7.07;5.15;;;18.70;99.90;;;;;;4964449;28;20511;-76
2022/08/12 04:38:18;;;;;;;8.52;4.75;;;18.70;99.90;;;;;;4967624;28;20051;-76
2022/08/12 04:40:45;;;;;;;7.97;4.65;;;18.70;99.90;;;;;;4970092;28;20514;-76
2022/08/12 04:43:11;;;;;;;6.22;4.93;;;18.70;99.90;;;;;;4969721;28;20104;-76
2022/08/12 04:45:38;;;;;;;6.63;4.80;;;18.60;99.90;;;;;;4964304;28;20044;-76
2022/08/12 04:48:07;;;;;;;6.78;5.03;;;18.60;99.90;;;;;;4969771;28;20472;-76
2022/08/12 04:50:33;;;;;;;7.15;4.95;;;18.60;99.90;;;;;;5066791;28;20487;-76
2022/08/12 04:52:59;;;;;;;8.63;5.20;;;18.60;99.90;;;;;;4970139;28;20047;-76
2022/08/12 04:55:25;;;;;;;8.25;4.95;;;18.60;99.90;;;;;;4970081;28;20399;-76
2022/08/12 04:57:52;;;;;;;6.65;5.05;;;18.60;99.90;;;;;;4970329;28;20053;-76
2022/08/12 05:00:18;;;;;;;8.48;5.22;;;18.60;99.90;;;;;;4969779;28;20043;-76
2022/08/12 05:02:44;;;;;;;9.02;5.35;;;18.60;99.90;;;;;;4970155;28;20065;-76
2022/08/12 05:05:19;;;;;;;7.05;5.00;;;18.60;99.90;;;;;;4969456;28;20038;-76
2022/08/12 05:07:46;;;;;;;6.13;4.82;;;18.50;99.90;;;;;;4970063;28;20433;-76
2022/08/12 05:10:12;;;;;;;6.72;5.35;;;18.60;99.90;;;;;;4969989;28;20379;-76
2022/08/12 05:12:43;;;;;;;7.45;5.00;;;18.60;99.90;;;;;;4970269;28;20117;-76
2022/08/12 05:15:12;;;;;;;9.18;5.13;;;18.50;99.90;;;;;;4968019;28;20050;-76
2022/08/12 05:17:39;;;;;;;7.65;4.70;;;18.60;99.90;;;;;;4968462;28;20456;-76
2022/08/12 05:20:08;;;;;;;9.07;5.03;;;18.60;99.90;;;;;;4969416;28;20047;-76
2022/08/12 05:22:34;;;;;;;8.02;4.95;;;18.50;99.90;;;;;;4950535;28;20031;-76
2022/08/12 05:25:00;;;;;;;7.50;4.88;;;18.50;99.90;;;;;;4959748;28;20047;-76
2022/08/12 05:27:26;;;;;;;9.55;5.35;;;18.50;99.90;;;;;;4967605;28;20057;-76
2022/08/12 05:29:51;;;;;;;8.70;5.25;;;18.50;99.90;;;;;;4962925;28;20043;-76
2022/08/12 05:32:19;;;;;;;7.25;4.68;;;18.60;99.90;;;;;;4969334;28;20089;-76
2022/08/12 05:34:49;;;;;;;6.68;4.55;;;18.60;99.90;;;;;;4953494;28;20041;-76
2022/08/12 05:37:15;;;;;;;9.25;4.75;;;18.50;99.90;;;;;;4969322;28;20054;-76
2022/08/12 05:39:41;;;;;;;6.78;4.50;;;18.60;99.90;;;;;;4969121;28;20084;-76
2022/08/12 05:42:08;;;;;;;6.35;4.38;;;18.60;99.90;;;;;;4969357;28;20514;-76
2022/08/12 05:44:34;;;;;;;6.60;4.18;;;18.60;99.90;;;;;;4969172;28;20050;-76
2022/08/12 05:46:59;;;;;;;6.88;4.72;;;18.60;99.90;;;;;;4968617;28;20042;-76
2022/08/12 05:49:25;;;;;;;7.90;4.30;;;18.60;99.90;;;;;;4966498;28;20042;-76
2022/08/12 05:51:51;;;;;;;8.45;4.65;;;18.60;99.90;;;;;;4965646;28;20495;-76
2022/08/12 05:54:17;;;;;;;11.00;5.35;;;18.60;99.90;;;;;;4966777;28;20050;-76
2022/08/12 05:56:44;;;;;;;6.18;4.20;;;18.70;99.90;;;;;;4993057;28;20045;-75
2022/08/12 05:59:11;;;;;;;8.23;4.63;;;18.70;99.90;;;;;;4965946;28;20047;-76
2022/08/12 06:01:37;;;;;;;7.05;4.38;;;18.70;99.90;;;;;;4964174;28;20038;-76
2022/08/12 06:04:03;;;;;;;5.90;4.20;;;18.70;99.90;;;;;;4968807;28;20066;-76
2022/08/12 06:06:34;;;;;;;7.97;4.30;;;18.70;99.90;;;;;;4969215;28;20034;-76
2022/08/12 06:09:00;;;;;;;6.28;4.50;;;18.70;99.90;;;;;;4970968;28;20061;-76
2022/08/12 06:11:26;;;;;;;5.60;4.40;;;18.80;99.90;;;;;;4968624;28;20046;-76
2022/08/12 06:13:54;;;;;;;8.50;4.60;;;18.80;99.90;;;;;;4968912;28;20104;-76
2022/08/12 06:16:22;;;;;;;7.18;4.28;;;18.80;99.90;;;;;;4962576;28;20047;-76
2022/08/12 06:18:48;;;;;;;5.97;4.43;;;18.80;99.90;;;;;;4971765;28;20054;-76
2022/08/12 06:21:16;;;;;;;7.80;4.15;;;18.80;99.90;;;;;;4969003;28;20429;-76
2022/08/12 06:23:44;;;;;;;6.80;4.05;;;18.90;99.90;;;;;;4968490;28;20564;-76
2022/08/12 06:26:14;;;;;;;6.38;4.00;;;18.90;99.90;;;;;;4953022;28;20118;-76
2022/08/12 06:28:41;;;;;;;6.93;4.20;;;18.90;99.90;;;;;;4968062;28;20129;-76
2022/08/12 06:31:09;;;;;;;7.90;4.10;;;18.90;99.90;;;;;;4974170;28;20081;-76
2022/08/12 06:33:42;;;;;;;6.80;4.10;;;19.00;99.90;;;;;;5005645;22;20048;-77
2022/08/12 06:36:08;;;;;;;6.70;3.70;;;19.00;99.90;;;;;;5077055;28;20044;-80
2022/08/12 06:38:33;;;;;;;7.38;3.88;;;19.10;99.90;;;;;;5086020;28;20155;-80
2022/08/12 06:43:45;;;;;;;7.63;3.97;;;19.10;99.90;;;;;;5077022;28;20047;-79
2022/08/12 06:46:12;;;;;;;6.90;4.47;;;19.10;99.90;;;;;;5075986;28;20085;-80
2022/08/12 06:48:41;;;;;;;6.07;3.47;;;19.20;99.90;;;;;;5071837;28;20043;-79
2022/08/12 06:51:09;;;;;;;7.25;3.90;;;19.20;99.90;;;;;;5063122;28;20052;-82
2022/08/12 06:53:35;;;;;;;7.15;3.70;;;19.20;99.90;;;;;;5048490;28;20040;-80
2022/08/12 06:56:01;;;;;;;6.63;4.10;;;19.20;99.90;;;;;;5056070;28;20079;-79
2022/08/12 06:58:29;;;;;;;4.88;3.60;;;19.30;99.90;;;;;;5072982;28;20137;-80
2022/08/12 07:00:56;;;;;;;5.85;4.00;;;19.30;99.90;;;;;;5070566;28;20036;-80
2022/08/12 07:03:27;;;;;;;7.43;4.28;;;19.30;99.90;;;;;;5057562;28;20410;-80
2022/08/12 07:06:04;;;;;;;7.15;4.15;;;19.40;99.90;;;;;;5073710;28;20032;-80
2022/08/12 07:08:34;;;;;;;5.60;3.70;;;19.40;99.90;;;;;;5072987;28;20036;-80
2022/08/12 07:11:02;;;;;;;8.68;4.05;;;19.40;99.90;;;;;;5045533;28;20043;-80
2022/08/12 07:13:37;;;;;;;9.02;4.03;;;19.50;99.90;;;;;;5052431;28;20059;-80
2022/08/12 07:16:04;;;;;;;6.05;3.72;;;19.50;99.90;;;;;;5056942;28;20044;-80
2022/08/12 07:18:31;;;;;;;9.23;3.58;;;19.60;99.90;;;;;;5063098;28;20046;-80
2022/08/12 07:21:00;;;;;;;5.50;4.03;;;19.60;99.90;;;;;;5046813;28;20179;-80
2022/08/12 07:23:27;;;;;;;6.07;3.40;;;19.70;99.90;;;;;;5062196;28;20036;-80
2022/08/12 07:25:53;;;;;;;5.90;3.55;;;19.70;99.90;;;;;;5067438;28;20488;-80
2022/08/12 07:28:22;;;;;;;5.68;3.92;;;19.70;99.90;;;;;;5080434;28;20040;-80
2022/08/12 07:30:50;;;;;;;8.75;3.85;;;19.80;99.90;;;;;;5067858;28;20043;-80
2022/08/12 07:33:23;;;;;;;7.45;3.70;;;19.90;99.90;;;;;;5070338;28;20040;-80
2022/08/12 07:35:51;;;;;;;5.25;3.58;;;19.90;99.90;;;;;;5062369;28;20051;-80
2022/08/12 07:38:42;;;;;;;7.18;3.28;;;20.00;99.90;;;;;;5048419;28;20462;-80
2022/08/12 07:41:27;;;;;;;6.50;3.42;;;20.00;99.90;;;;;;5060993;28;20048;-80
2022/08/12 07:44:01;;;;;;;8.25;3.58;;;20.10;99.90;;;;;;5068479;28;20045;-80
2022/08/12 07:46:37;;;;;;;6.05;3.58;;;20.20;99.90;;;;;;5057189;28;20043;-80
2022/08/12 07:49:09;;;;;;;5.95;3.60;;;20.20;99.90;;;;;;5067055;28;20036;-80
2022/08/12 07:51:35;;;;;;;;;;;20.30;99.90;;;;;;5068721;28;20402;-80
2022/08/12 07:54:08;;;;;;;8.77;3.53;;;20.40;99.90;;;;;;5073733;28;19998;-80
2022/08/12 07:56:38;;;;;;;6.85;3.53;;;20.50;99.90;;;;;;5059145;28;20044;-80
2022/08/12 07:59:07;;;;;;;7.13;3.67;;;20.50;99.90;;;;;;5063882;28;20044;-80
2022/08/12 08:01:36;;;;;;;7.00;3.38;;;20.60;99.90;;;;;;5072205;28;20044;-80
2022/08/12 08:06:48;;;;;;;5.72;3.55;;;20.80;99.90;;;;;;5066800;28;20052;-80
2022/08/12 08:09:16;;;;;;;6.13;3.33;;;20.90;99.90;;;;;;5068590;28;20044;-80
2022/08/12 08:14:28;;;;;;;6.30;3.40;;;21.10;99.90;;;;;;5074292;28;20222;-79
2022/08/12 08:17:05;;;;;;;5.47;3.40;;;21.10;99.90;;;;;;5064834;28;20080;-79
2022/08/12 08:19:32;;;;;;;6.00;3.63;;;21.20;99.90;;;;;;5074225;28;20032;-80
2022/08/12 08:21:58;;;;;;;6.43;3.15;;;21.30;99.90;;;;;;5058994;28;20032;-79
2022/08/12 08:24:26;;;;;;;5.55;3.13;;;21.30;99.90;;;;;;5077957;28;20040;-80
2022/08/12 08:26:55;;;;;;;7.35;3.05;;;21.40;99.90;;;;;;5055823;28;20509;-80
2022/08/12 08:29:22;;;;;;;101.78;79.85;;;21.50;99.90;;;;;;5061028;28;20149;-80
2022/08/12 08:31:53;;;;;;;45.35;36.20;;;21.60;99.90;;;;;;5064143;28;20533;-80
2022/08/12 08:34:20;;;;;;;14.63;9.90;;;21.80;99.90;;;;;;5065912;28;20151;-80
2022/08/12 08:36:46;;;;;;;8.73;6.07;;;21.90;99.90;;;;;;5072785;28;20086;-80
2022/08/12 08:39:15;;;;;;;6.38;4.43;;;22.10;99.90;;;;;;5066504;28;20082;-80
2022/08/12 08:44:26;;;;;;;5.35;3.50;;;22.60;99.90;;;;;;5070364;28;20101;-80
2022/08/12 08:46:54;;;;;;;6.25;3.45;;;23.00;99.90;;;;;;5074920;28;20040;-80
2022/08/12 08:49:22;;;;;;;6.57;3.58;;;23.20;99.90;;;;;;5070491;28;20495;-80
2022/08/12 08:51:48;;;;;;;3.95;2.83;;;23.60;99.90;;;;;;5060510;28;20055;-80
2022/08/12 08:54:14;;;;;;;6.35;3.70;;;23.90;99.90;;;;;;5072214;28;20048;-80
2022/08/12 08:56:45;;;;;;;4.35;3.03;;;24.20;99.70;;;;;;5070786;28;20037;-80
2022/08/12 08:59:12;;;;;;;7.05;3.28;;;24.40;98.70;;;;;;5067981;28;20107;-80
2022/08/12 09:01:39;;;;;;;5.82;3.40;;;24.70;97.60;;;;;;5070183;28;20437;-80
2022/08/12 09:04:05;;;;;;;8.10;4.45;;;25.00;96.80;;;;;;5075106;28;20122;-80
2022/08/12 09:06:31;;;;;;;11.57;6.90;;;25.20;96.10;;;;;;5070165;28;20056;-80
2022/08/12 09:08:56;;;;;;;5.93;4.03;;;25.50;95.50;;;;;;5084012;28;20041;-80
2022/08/12 09:14:08;;;;;;;5.50;3.20;;;25.90;94.10;;;;;;5059536;28;20052;-80
2022/08/12 09:16:38;;;;;;;5.07;2.88;;;26.20;93.60;;;;;;5065680;28;20043;-79
2022/08/12 09:19:04;;;;;;;8.40;3.10;;;26.40;92.90;;;;;;5051182;28;20052;-78
2022/08/12 09:21:31;;;;;;;7.95;3.38;;;26.60;92.10;;;;;;5070836;28;20040;-80
2022/08/12 09:23:59;;;;;;;6.00;3.20;;;26.90;91.80;;;;;;5073830;28;20522;-80
2022/08/12 09:26:27;;;;;;;4.57;3.15;;;27.10;91.10;;;;;;5068298;28;20046;-79
2022/08/12 09:28:54;;;;;;;4.43;2.92;;;27.30;90.40;;;;;;5051598;28;20517;-80
2022/08/12 09:31:21;;;;;;;6.45;3.05;;;27.50;89.70;;;;;;5069485;28;20052;-79
2022/08/12 09:33:49;;;;;;;5.13;2.72;;;27.70;87.20;;;;;;5044510;28;20070;-81
2022/08/12 09:36:18;;;;;;;4.55;2.88;;;27.80;85.60;;;;;;5047987;28;20049;-80
2022/08/12 09:38:44;;;;;;;4.85;3.22;;;28.00;84.40;;;;;;5071344;28;20424;-80
2022/08/12 09:41:10;;;;;;;4.30;3.08;;;28.20;82.80;;;;;;5069112;28;20033;-81
2022/08/12 09:46:21;;;;;;;7.95;3.28;;;28.50;79.60;;;;;;5063735;28;20045;-81
2022/08/12 09:48:46;;;;;;;4.95;3.13;;;28.60;77.70;;;;;;5067048;28;20535;-81
2022/08/12 09:51:12;;;;;;;6.53;2.92;;;28.80;75.70;;;;;;5066995;28;20036;-81
2022/08/12 09:53:39;;;;;;;10.55;3.67;;;29.10;73.90;;;;;;5088845;28;20055;-81
2022/08/12 09:56:06;;;;;;;6.40;3.20;;;29.10;71.30;;;;;;5069691;28;20634;-81
2022/08/12 09:58:33;;;;;;;4.50;2.78;;;29.20;68.40;;;;;;5061757;28;20055;-81
2022/08/12 10:01:04;;;;;;;5.38;3.17;;;29.30;68.10;;;;;;5075553;28;20491;-81
2022/08/12 10:03:31;;;;;;;;;;;29.50;65.20;;;;;;5070902;28;20376;-81
2022/08/12 10:06:04;;;;;;;3.97;3.08;;;29.50;60.80;;;;;;5063273;28;19916;-81
2022/08/12 10:08:30;;;;;;;3.45;2.95;;;29.60;62.40;;;;;;5058504;28;20084;-81
2022/08/12 10:13:43;;;;;;;6.03;3.00;;;29.80;62.00;;;;;;5091389;28;20487;-82
2022/08/12 10:16:11;;;;;;;6.07;2.88;;;29.90;61.30;;;;;;5073218;28;20044;-81
2022/08/12 10:18:42;;;;;;;4.40;3.10;;;30.00;60.70;;;;;;5068677;28;20088;-82
2022/08/12 10:21:17;;;;;;;3.63;2.72;;;30.10;59.80;;;;;;5067131;28;20051;-82
2022/08/12 10:23:45;;;;;;;3.53;2.88;;;30.20;59.60;;;;;;5055960;28;20040;-82
2022/08/12 10:31:45;;;;;;;4.25;3.10;;;30.40;58.10;;;;;;5059327;28;20521;-81
2022/08/12 10:34:12;;;;;;;8.18;3.22;;;30.60;57.60;;;;;;5048411;28;20040;-81
2022/08/12 10:36:39;;;;;;;3.20;2.60;;;30.70;57.20;;;;;;5071613;28;20035;-81
2022/08/12 10:39:08;;;;;;;3.00;2.70;;;30.80;56.50;;;;;;5057368;28;20142;-82
2022/08/12 10:44:18;;;;;;;3.03;2.58;;;31.00;55.60;;;;;;5090652;28;20099;-82
2022/08/12 10:46:45;;;;;;;3.63;2.70;;;31.00;53.80;;;;;;5078281;28;20049;-81
2022/08/12 10:49:11;;;;;;;4.43;2.90;;;31.10;53.30;;;;;;5062169;28;20044;-82
2022/08/12 10:51:38;;;;;;;4.25;2.55;;;31.20;53.70;;;;;;5080467;28;20046;-81
2022/08/12 10:54:03;;;;;;;4.43;2.67;;;31.30;53.00;;;;;;5071563;28;20058;-81
2022/08/12 10:56:32;;;;;;;6.13;2.60;;;31.30;52.30;;;;;;5079168;28;20039;-81
2022/08/12 10:58:58;;;;;;;3.28;2.97;;;31.30;51.40;;;;;;5075871;28;20043;-81
2022/08/12 11:01:24;;;;;;;4.97;2.67;;;31.30;51.70;;;;;;5078525;28;20590;-82
2022/08/12 11:03:50;;;;;;;4.53;2.60;;;31.30;51.50;;;;;;5069100;28;20043;-81
2022/08/12 11:06:17;;;;;;;5.68;2.60;;;31.40;51.80;;;;;;5096880;28;20043;-82
2022/08/12 11:08:44;;;;;;;5.07;2.40;;;31.40;51.70;;;;;;5060743;28;20528;-81
2022/08/12 11:11:16;;;;;;;3.38;2.55;;;31.50;51.80;;;;;;5072369;28;20040;-82
2022/08/12 11:13:48;;;;;;;3.35;2.42;;;31.60;52.10;;;;;;5077212;28;20066;-81
2022/08/12 11:16:16;;;;;;;4.80;2.30;;;31.70;51.10;;;;;;5086839;28;20040;-81
2022/08/12 11:18:42;;;;;;;3.72;2.47;;;31.80;51.10;;;;;;5069838;28;20479;-82
2022/08/12 11:21:08;;;;;;;7.55;2.95;;;31.70;50.90;;;;;;5070514;28;20028;-81
2022/08/12 11:23:34;;;;;;;3.67;2.63;;;31.70;51.00;;;;;;5068911;28;20036;-82
2022/08/12 11:25:59;;;;;;;3.22;2.40;;;31.70;50.40;;;;;;5060588;28;20441;-81
2022/08/12 11:28:25;;;;;;;3.60;2.42;;;31.70;49.60;;;;;;5075703;28;20040;-82
2022/08/12 11:30:51;;;;;;;5.35;2.38;;;31.80;49.40;;;;;;5067938;28;20048;-81
2022/08/12 11:33:18;;;;;;;3.80;2.45;;;31.80;49.40;;;;;;5056475;28;20067;-82
2022/08/12 11:35:45;;;;;;;4.60;2.20;;;31.90;49.10;;;;;;5050102;28;20654;-82
2022/08/12 11:38:10;;;;;;;3.88;2.63;;;32.00;48.60;;;;;;5094166;28;20035;-81
2022/08/12 11:40:37;;;;;;;3.47;2.30;;;32.00;48.90;;;;;;5074915;28;20047;-82
2022/08/12 11:43:03;;;;;;;3.15;2.33;;;32.00;48.60;;;;;;5074148;28;20079;-81
2022/08/12 11:45:30;;;;;;;3.55;2.20;;;32.20;48.30;;;;;;5090806;28;20040;-81
2022/08/12 11:47:58;;;;;;;3.33;2.40;;;32.20;48.20;;;;;;5091186;28;20040;-81
2022/08/12 11:50:24;;;;;;;3.45;2.58;;;32.30;48.10;;;;;;5078776;28;20124;-81
2022/08/12 11:52:50;;;;;;;3.30;2.63;;;32.20;47.20;;;;;;5078312;28;20043;-82
2022/08/12 11:55:17;;;;;;;3.40;2.45;;;32.20;47.50;;;;;;5090490;28;20507;-82
2022/08/12 11:57:50;;;;;;;4.95;2.63;;;32.10;47.90;;;;;;5068629;28;20502;-82
2022/08/12 12:00:16;;;;;;;4.75;2.70;;;32.20;48.00;;;;;;5074158;28;20036;-81
2022/08/12 12:02:42;;;;;;;3.45;2.75;;;32.30;47.60;;;;;;5092510;28;20036;-81
2022/08/12 12:05:08;;;;;;;4.32;2.45;;;32.30;47.60;;;;;;5090094;28;20040;-81
2022/08/12 12:07:41;;;;;;;4.05;2.50;;;32.40;47.80;;;;;;5065435;28;20039;-81
2022/08/12 12:10:07;;;;;;;4.68;2.65;;;32.40;47.70;;;;;;5050525;28;20033;-81
2022/08/12 12:12:33;;;;;;;3.60;2.55;;;32.40;47.60;;;;;;5069929;28;20074;-81
2022/08/12 12:14:59;;;;;;;5.10;2.70;;;32.50;47.50;;;;;;5063837;28;20044;-81
2022/08/12 12:17:25;;;;;;;4.00;2.45;;;32.60;47.10;;;;;;5074936;28;20040;-81
2022/08/12 12:19:52;;;;;;;4.32;2.40;;;32.60;46.90;;;;;;5076339;28;20131;-81
2022/08/12 12:22:19;;;;;;;4.43;2.55;;;32.60;46.80;;;;;;5060947;28;20040;-81
2022/08/12 12:24:50;;;;;;;4.38;2.50;;;32.60;46.90;;;;;;5063103;28;20154;-81
2022/08/12 12:27:20;;;;;;;6.25;2.67;;;32.70;46.90;;;;;;5057339;28;20041;-81
2022/08/12 12:29:47;;;;;;;4.05;2.50;;;32.60;47.10;;;;;;5063018;28;20036;-81
2022/08/12 12:32:14;;;;;;;3.65;2.33;;;32.70;47.30;;;;;;5062526;28;20066;-81
2022/08/12 12:34:39;;;;;;;6.85;2.75;;;32.60;47.30;;;;;;5042856;22;20149;-77
2022/08/12 12:37:09;;;;;;;3.03;2.40;;;32.60;46.50;;;;;;4972217;28;20533;-77
2022/08/12 12:39:35;;;;;;;4.30;2.60;;;32.70;46.00;;;;;;4972867;28;20453;-79
2022/08/12 12:42:00;;;;;;;3.33;2.50;;;32.80;45.90;;;;;;4972680;28;20298;-77
2022/08/12 12:44:26;;;;;;;2.83;2.17;;;32.80;45.30;;;;;;4977212;28;20156;-78
2022/08/12 12:46:52;;;;;;;5.05;2.50;;;32.80;45.20;;;;;;4977983;28;20078;-77
2022/08/12 12:49:17;;;;;;;4.03;2.67;;;32.70;45.30;;;;;;4972797;28;20043;-77
2022/08/12 12:51:43;;;;;;;4.10;2.63;;;32.80;45.50;;;;;;4974560;28;20035;-78
2022/08/12 12:54:09;;;;;;;5.90;2.33;;;32.80;45.30;;;;;;4975096;28;20098;-78
2022/08/12 12:56:37;;;;;;;3.20;2.33;;;32.70;45.10;;;;;;4974465;28;20118;-78
2022/08/12 12:59:04;;;;;;;3.58;2.28;;;32.60;45.00;;;;;;4981117;28;20047;-78
2022/08/12 13:01:30;;;;;;;4.55;2.35;;;32.60;44.60;;;;;;4977584;28;20042;-77
2022/08/12 13:03:56;;;;;;;5.20;2.53;;;32.60;44.60;;;;;;4969724;28;20103;-77
2022/08/12 13:06:24;;;;;;;4.20;2.53;;;32.60;44.80;;;;;;4970900;28;20043;-78
2022/08/12 13:08:52;;;;;;;4.03;2.47;;;32.50;44.80;;;;;;4974363;28;20073;-77
2022/08/12 13:11:19;;;;;;;3.38;2.55;;;32.50;44.70;;;;;;4955527;28;20043;-77
2022/08/12 13:13:48;;;;;;;2.80;2.50;;;32.50;44.80;;;;;;4971691;28;20043;-78
2022/08/12 13:16:21;;;;;;;8.55;2.83;;;32.50;44.80;;;;;;4972873;28;20059;-78
2022/08/12 13:18:52;;;;;;;3.58;2.80;;;32.40;44.30;;;;;;5020925;28;20085;-78
2022/08/12 13:21:18;;;;;;;2.80;2.30;;;32.50;44.60;;;;;;4971180;28;20034;-78
2022/08/12 13:23:46;;;;;;;3.78;2.80;;;32.50;45.30;;;;;;4973848;28;20038;-78
2022/08/12 13:26:13;;;;;;;3.72;3.00;;;32.50;44.80;;;;;;4974780;28;20100;-78
2022/08/12 13:28:44;;;;;;;3.38;2.70;;;32.50;45.00;;;;;;4980881;28;20085;-77
2022/08/12 13:31:10;;;;;;;4.10;2.67;;;32.40;44.90;;;;;;4978886;28;20086;-78
2022/08/12 13:33:36;;;;;;;4.32;2.90;;;32.50;44.80;;;;;;4974641;28;20355;-78
2022/08/12 13:36:03;;;;;;;3.70;2.55;;;32.40;44.40;;;;;;4976542;28;20092;-78
2022/08/12 13:38:40;;;;;;;4.38;2.80;;;32.50;44.60;;;;;;4974134;28;20409;-78
2022/08/12 13:41:08;;;;;;;6.47;3.30;;;32.50;45.00;;;;;;4985646;28;20075;-77
2022/08/12 13:43:33;;;;;;;4.93;2.85;;;32.60;44.80;;;;;;4970138;28;20035;-77
2022/08/12 13:46:02;;;;;;;3.85;2.80;;;32.50;44.70;;;;;;4996052;28;20169;-78
2022/08/12 13:48:28;;;;;;;3.40;2.85;;;32.60;44.60;;;;;;4971702;28;20117;-77
2022/08/12 13:50:56;;;;;;;4.30;2.70;;;32.60;44.50;;;;;;4976377;28;20043;-77
2022/08/12 13:53:22;;;;;;;4.78;2.80;;;32.60;44.60;;;;;;4966289;28;20054;-78
2022/08/12 13:55:50;;;;;;;3.72;3.10;;;32.60;44.20;;;;;;4976519;28;20057;-78
2022/08/12 13:58:18;;;;;;;3.88;2.80;;;32.60;44.20;;;;;;4978160;28;20038;-78
2022/08/12 14:00:50;;;;;;;3.53;2.60;;;32.60;44.20;;;;;;4974870;28;20039;-78
2022/08/12 14:03:20;;;;;;;4.78;2.83;;;32.60;44.00;;;;;;4974560;28;20035;-78
2022/08/12 14:05:46;;;;;;;7.43;2.70;;;32.50;43.80;;;;;;4974945;28;20418;-78
2022/08/12 14:08:13;;;;;;;5.85;2.90;;;32.50;44.40;;;;;;4975208;28;20457;-78
2022/08/12 14:10:49;;;;;;;5.53;3.30;;;32.50;44.40;;;;;;4975099;28;20272;-79
2022/08/12 14:13:20;;;;;;;4.63;3.00;;;32.50;44.50;;;;;;4978152;28;20050;-78
2022/08/12 14:15:49;;;;;;;;;;;32.60;44.70;;;;;;4974886;28;20034;-78
2022/08/12 14:18:22;;;;;;;3.75;3.00;;;32.60;45.60;;;;;;4974194;28;19922;-78
2022/08/12 14:20:57;;;;;;;3.30;2.95;;;32.60;44.80;;;;;;4967203;28;20122;-78
2022/08/12 14:23:25;;;;;;;7.47;2.90;;;32.60;44.30;;;;;;4973330;28;20039;-79
2022/08/12 14:25:51;;;;;;;3.20;2.90;;;32.60;44.20;;;;;;4967973;28;20226;-79
2022/08/12 14:28:19;;;;;;;3.38;2.90;;;32.60;44.20;;;;;;4990024;28;20550;-78
2022/08/12 14:30:55;;;;;;;4.20;2.85;;;32.50;44.00;;;;;;4977818;28;20051;-78
2022/08/12 14:33:27;;;;;;;4.75;3.03;;;32.40;43.60;;;;;;4961785;28;20220;-78
2022/08/12 14:35:54;;;;;;;4.18;3.00;;;32.40;43.90;;;;;;4973335;28;20049;-78
2022/08/12 14:38:25;;;;;;;4.82;3.03;;;32.40;43.80;;;;;;4974684;28;20054;-78
2022/08/12 14:40:56;;;;;;;7.40;3.45;;;32.40;43.70;;;;;;4974007;28;20402;-78
2022/08/12 14:43:26;;;;;;;3.75;3.00;;;32.40;44.20;;;;;;4975738;28;20447;-78
2022/08/12 14:45:53;;;;;;;3.63;3.17;;;32.40;44.40;;;;;;4976652;28;20062;-79
2022/08/12 14:48:19;;;;;;;4.53;3.00;;;32.40;44.40;;;;;;4973725;28;20122;-78